createdAt,value
2023-03-26T00:01:36.966Z,5.00
2023-03-26T00:04:07.527Z,5.80
2023-03-26T00:06:39.558Z,5.40
2023-03-26T00:09:10.680Z,4.50
2023-03-26T00:11:38.572Z,4.40
2023-03-26T00:14:06.541Z,4.40
2023-03-26T00:16:34.420Z,4.90
2023-03-26T00:19:02.720Z,4.50
2023-03-26T00:21:31.612Z,3.30
2023-03-26T00:24:04.841Z,4.70
2023-03-26T00:26:38.517Z,4.10
2023-03-26T00:29:08.347Z,3.80
2023-03-26T00:31:39.869Z,4.70
2023-03-26T00:34:08.556Z,4.40
2023-03-26T00:36:36.428Z,4.60
2023-03-26T00:39:06.268Z,4.70
2023-03-26T00:41:37.379Z,5.00
2023-03-26T00:44:05.565Z,4.10
2023-03-26T00:46:33.400Z,4.10
2023-03-26T00:49:04.034Z,4.00
2023-03-26T00:51:34.189Z,4.20
2023-03-26T00:54:02.606Z,5.00
2023-03-26T00:56:30.904Z,5.00
2023-03-26T00:59:00.385Z,4.10
2023-03-26T01:01:30.590Z,4.30
2023-03-26T01:04:19.783Z,4.70
2023-03-26T01:06:47.767Z,3.90
2023-03-26T01:09:19.185Z,4.20
2023-03-26T01:14:23.906Z,4.50
2023-03-26T01:16:55.260Z,3.50
2023-03-26T01:21:53.716Z,3.40
2023-03-26T01:24:22.262Z,4.20
2023-03-26T01:27:32.143Z,3.50
2023-03-26T01:30:37.204Z,3.10
2023-03-26T01:33:14.396Z,3.60
2023-03-26T01:36:01.149Z,3.80
2023-03-26T01:39:00.550Z,2.90
2023-03-26T01:41:49.396Z,3.80
2023-03-26T01:44:28.649Z,3.80
2023-03-26T01:46:58.200Z,4.10
2023-03-26T01:49:29.274Z,3.30
2023-03-26T01:51:58.102Z,3.80
2023-03-26T01:54:31.547Z,5.10
2023-03-26T01:57:12.900Z,4.70
2023-03-26T01:59:53.032Z,3.90
2023-03-26T02:02:31.083Z,3.90
2023-03-26T02:05:13.093Z,3.40
2023-03-26T02:07:58.624Z,3.50
2023-03-26T02:10:30.333Z,3.60
2023-03-26T02:12:59.158Z,3.10
2023-03-26T02:15:27.184Z,3.40
2023-03-26T02:17:55.112Z,4.10
2023-03-26T02:20:23.122Z,3.90
2023-03-26T02:22:50.937Z,4.30
2023-03-26T02:25:20.816Z,3.90
2023-03-26T02:27:50.095Z,4.30
2023-03-26T02:30:25.805Z,4.00
2023-03-26T02:32:54.418Z,3.50
2023-03-26T02:35:22.890Z,3.70
2023-03-26T02:37:51.076Z,3.60
2023-03-26T02:40:21.241Z,3.90
2023-03-26T02:42:49.358Z,3.90
2023-03-26T02:45:17.246Z,3.60
2023-03-26T02:47:46.112Z,3.80
2023-03-26T02:50:14.699Z,3.10
2023-03-26T02:52:43.271Z,3.10
2023-03-26T02:55:11.165Z,3.50
2023-03-26T02:57:39.125Z,3.20
2023-03-26T03:00:16.946Z,3.50
2023-03-26T03:02:48.163Z,3.70
2023-03-26T03:05:18.193Z,3.40
2023-03-26T03:07:46.642Z,3.50
2023-03-26T03:10:15.489Z,3.30
2023-03-26T03:12:43.426Z,3.00
2023-03-26T03:15:11.916Z,3.50
2023-03-26T03:17:40.692Z,3.50
2023-03-26T03:20:11.515Z,2.60
2023-03-26T03:22:39.841Z,3.30
2023-03-26T03:25:14.486Z,3.30
2023-03-26T03:27:42.962Z,3.00
2023-03-26T03:30:13.259Z,3.20
2023-03-26T03:32:41.182Z,3.20
2023-03-26T03:35:09.270Z,2.70
2023-03-26T03:37:37.334Z,3.50
2023-03-26T03:40:07.811Z,2.90
2023-03-26T03:42:35.599Z,2.90
2023-03-26T03:45:06.053Z,2.90
2023-03-26T03:47:33.968Z,3.00
2023-03-26T03:50:02.222Z,3.10
2023-03-26T03:52:30.587Z,3.30
2023-03-26T03:55:00.509Z,2.80
2023-03-26T03:57:29.218Z,3.20
2023-03-26T04:00:00.003Z,2.70
2023-03-26T04:02:34.716Z,3.40
2023-03-26T04:05:04.208Z,3.50
2023-03-26T04:07:32.799Z,3.00
2023-03-26T04:10:03.016Z,3.10
2023-03-26T04:12:31.459Z,2.80
2023-03-26T04:15:00.557Z,2.80
2023-03-26T04:17:30.598Z,2.50
2023-03-26T04:19:58.806Z,2.30
2023-03-26T04:22:36.680Z,2.50
2023-03-26T04:25:05.397Z,2.60
2023-03-26T04:27:38.040Z,3.40
2023-03-26T04:30:08.320Z,2.80
2023-03-26T04:32:38.348Z,2.80
2023-03-26T04:35:06.996Z,2.80
2023-03-26T04:37:40.219Z,2.90
2023-03-26T04:40:14.117Z,2.50
2023-03-26T04:42:46.086Z,2.40
2023-03-26T04:45:16.574Z,2.90
2023-03-26T04:47:46.800Z,2.80
2023-03-26T04:50:15.628Z,3.20
2023-03-26T04:52:45.129Z,3.20
2023-03-26T04:55:40.196Z,2.50
2023-03-26T04:58:09.647Z,3.60
2023-03-26T05:00:37.457Z,2.80
2023-03-26T05:03:06.459Z,3.00
2023-03-26T05:05:34.522Z,2.70
2023-03-26T05:08:02.487Z,4.70
2023-03-26T05:10:30.453Z,5.30
2023-03-26T05:12:58.420Z,3.00
2023-03-26T05:15:26.392Z,6.30
2023-03-26T05:17:55.767Z,4.70
2023-03-26T05:20:26.485Z,4.40
2023-03-26T05:22:54.329Z,5.70
2023-03-26T05:25:22.663Z,4.00
2023-03-26T05:27:50.747Z,3.00
2023-03-26T05:30:21.300Z,3.40
2023-03-26T05:32:49.569Z,3.30
2023-03-26T05:35:18.362Z,3.50
2023-03-26T05:37:47.521Z,3.30
2023-03-26T05:40:17.287Z,3.30
2023-03-26T05:42:45.678Z,3.40
2023-03-26T05:45:15.017Z,3.20
2023-03-26T05:47:43.408Z,3.40
2023-03-26T05:50:11.682Z,2.90
2023-03-26T05:52:40.066Z,2.60
2023-03-26T05:55:08.926Z,4.10
2023-03-26T05:57:37.673Z,3.00
2023-03-26T06:00:09.012Z,2.70
2023-03-26T06:05:05.298Z,4.30
2023-03-26T06:07:34.103Z,3.60
2023-03-26T06:10:03.000Z,2.60
2023-03-26T06:12:30.849Z,3.10
2023-03-26T06:14:58.841Z,4.00
2023-03-26T06:17:26.839Z,4.00
2023-03-26T06:19:54.689Z,3.00
2023-03-26T06:22:22.530Z,3.70
2023-03-26T06:24:52.877Z,5.00
2023-03-26T06:27:20.816Z,6.90
2023-03-26T06:29:48.702Z,6.30
2023-03-26T06:32:19.565Z,5.30
2023-03-26T06:34:48.220Z,3.10
2023-03-26T06:37:17.107Z,2.90
2023-03-26T06:39:44.899Z,3.00
2023-03-26T06:42:12.725Z,2.70
2023-03-26T06:44:40.552Z,2.30
2023-03-26T06:47:08.321Z,3.20
2023-03-26T06:49:38.346Z,2.40
2023-03-26T06:52:06.253Z,3.20
2023-03-26T06:54:34.030Z,3.60
2023-03-26T06:57:01.883Z,3.40
2023-03-26T06:59:29.910Z,2.70
2023-03-26T07:01:57.796Z,3.00
2023-03-26T07:04:25.779Z,2.50
2023-03-26T07:06:54.041Z,2.70
2023-03-26T07:09:21.882Z,3.20
2023-03-26T07:11:49.777Z,2.50
2023-03-26T07:14:17.658Z,2.90
2023-03-26T07:16:45.458Z,2.80
2023-03-26T07:19:13.474Z,2.50
2023-03-26T07:21:41.851Z,2.40
2023-03-26T07:24:11.769Z,3.10
2023-03-26T07:27:01.356Z,2.90
2023-03-26T07:29:43.956Z,2.60
2023-03-26T07:32:19.177Z,3.00
2023-03-26T07:34:59.350Z,3.20
2023-03-26T07:37:57.419Z,2.40
2023-03-26T07:40:45.620Z,2.70
2023-03-26T07:43:34.743Z,2.70
2023-03-26T07:46:02.972Z,2.40
2023-03-26T07:48:43.134Z,2.60
2023-03-26T07:51:11.787Z,2.40
2023-03-26T07:53:40.218Z,2.40
2023-03-26T07:56:13.595Z,2.80
2023-03-26T07:59:00.339Z,3.10
2023-03-26T08:01:40.472Z,3.50
2023-03-26T08:04:25.997Z,3.00
2023-03-26T08:07:05.392Z,2.80
2023-03-26T08:10:02.744Z,2.70
2023-03-26T08:13:11.885Z,2.90
2023-03-26T08:16:08.305Z,7.00
2023-03-26T08:19:13.849Z,5.10
2023-03-26T08:22:08.360Z,4.70
2023-03-26T08:25:17.749Z,4.10
2023-03-26T08:28:04.361Z,3.20
2023-03-26T08:30:32.811Z,2.50
2023-03-26T08:33:12.089Z,3.90
2023-03-26T08:35:42.643Z,3.10
2023-03-26T08:38:11.933Z,2.40
2023-03-26T08:41:17.175Z,2.70
2023-03-26T08:44:19.640Z,2.60
2023-03-26T08:49:40.365Z,2.80
2023-03-26T08:52:14.268Z,2.30
2023-03-26T08:54:42.146Z,2.50
2023-03-26T08:57:31.808Z,2.50
2023-03-26T09:00:31.314Z,3.00
2023-03-26T09:03:14.435Z,2.60
2023-03-26T09:06:25.399Z,2.80
2023-03-26T09:08:59.745Z,2.30
2023-03-26T09:12:05.358Z,4.30
2023-03-26T09:14:54.975Z,2.20
2023-03-26T09:17:47.831Z,2.20
2023-03-26T09:20:54.830Z,2.30
2023-03-26T09:23:52.828Z,2.50
2023-03-26T09:26:32.282Z,1.70
2023-03-26T09:29:38.901Z,2.00
2023-03-26T09:32:32.971Z,1.80
2023-03-26T09:35:27.252Z,2.20
2023-03-26T09:38:33.201Z,1.80
2023-03-26T09:41:32.507Z,2.00
2023-03-26T09:44:56.581Z,1.90
2023-03-26T09:48:14.315Z,1.80
2023-03-26T09:50:42.586Z,2.40
2023-03-26T09:53:25.712Z,2.00
2023-03-26T09:55:57.461Z,2.00
2023-03-26T09:58:28.681Z,2.10
2023-03-26T10:01:14.848Z,2.30
2023-03-26T10:04:02.132Z,1.50
2023-03-26T10:06:49.082Z,1.70
2023-03-26T10:09:30.411Z,1.50
2023-03-26T10:12:20.539Z,1.50
2023-03-26T10:15:09.653Z,1.40
2023-03-26T10:17:51.427Z,1.60
2023-03-26T10:20:47.813Z,1.50
2023-03-26T10:23:34.196Z,1.50
2023-03-26T10:26:21.416Z,0.80
2023-03-26T10:29:08.241Z,1.30
2023-03-26T10:31:44.084Z,0.70
2023-03-26T10:34:29.445Z,1.10
2023-03-26T10:37:07.755Z,0.70
2023-03-26T10:40:01.545Z,1.40
2023-03-26T10:42:45.690Z,1.50
2023-03-26T10:45:24.861Z,1.60
2023-03-26T10:48:23.152Z,2.60
2023-03-26T10:51:19.969Z,1.80
2023-03-26T10:53:56.917Z,2.30
2023-03-26T10:56:33.522Z,1.80
2023-03-26T11:01:56.355Z,1.40
2023-03-26T11:05:02.002Z,1.70
2023-03-26T11:07:45.018Z,1.80
2023-03-26T11:10:36.247Z,1.50
2023-03-26T11:13:38.815Z,1.60
2023-03-26T11:16:17.261Z,1.50
2023-03-26T11:19:27.539Z,1.80
2023-03-26T11:22:26.291Z,1.80
2023-03-26T11:25:12.683Z,2.00
2023-03-26T11:27:56.799Z,1.70
2023-03-26T11:30:51.656Z,1.70
2023-03-26T11:33:48.985Z,1.70
2023-03-26T11:36:29.377Z,1.70
2023-03-26T11:39:00.294Z,1.50
2023-03-26T11:41:32.753Z,1.50
2023-03-26T11:44:07.709Z,1.70
2023-03-26T11:46:42.604Z,2.00
2023-03-26T11:49:14.635Z,2.10
2023-03-26T11:51:44.901Z,1.80
2023-03-26T11:54:13.595Z,2.00
2023-03-26T11:57:05.619Z,1.90
2023-03-26T11:59:55.377Z,1.70
2023-03-26T12:02:38.873Z,1.50
2023-03-26T12:05:20.538Z,1.60
2023-03-26T12:07:56.881Z,1.90
2023-03-26T12:10:26.700Z,1.90
2023-03-26T12:13:01.295Z,1.80
2023-03-26T12:15:32.013Z,1.80
2023-03-26T12:18:23.198Z,1.50
2023-03-26T12:21:03.489Z,1.80
2023-03-26T12:23:36.249Z,1.60
2023-03-26T12:26:12.251Z,1.90
2023-03-26T12:28:45.072Z,1.70
2023-03-26T12:31:19.328Z,1.70
2023-03-26T12:34:07.815Z,2.10
2023-03-26T12:36:36.784Z,1.50
2023-03-26T12:40:10.011Z,1.50
2023-03-26T12:44:48.737Z,1.10
2023-03-26T12:45:29.058Z,1.10
2023-03-26T12:48:03.945Z,1.10
2023-03-26T12:50:41.584Z,1.10
2023-03-26T12:53:29.308Z,0.90
2023-03-26T12:56:27.393Z,0.90
2023-03-26T12:59:07.640Z,1.00
2023-03-26T13:01:52.983Z,1.20
2023-03-26T13:04:27.485Z,1.30
2023-03-26T13:07:11.276Z,1.10
2023-03-26T13:09:59.938Z,1.60
2023-03-26T13:12:34.969Z,1.30
2023-03-26T13:15:27.322Z,1.60
2023-03-26T13:18:33.465Z,1.50
2023-03-26T13:21:01.230Z,1.40
2023-03-26T13:23:38.229Z,1.20
2023-03-26T13:26:24.718Z,1.50
2023-03-26T13:29:09.268Z,1.30
2023-03-26T13:31:45.445Z,1.50
2023-03-26T13:34:26.416Z,1.50
2023-03-26T13:37:11.098Z,1.60
2023-03-26T13:40:32.928Z,0.80
2023-03-26T13:43:36.607Z,0.80
2023-03-26T13:46:22.478Z,0.90
2023-03-26T13:49:02.023Z,0.80
2023-03-26T13:51:40.775Z,1.00
2023-03-26T13:54:14.660Z,1.20
2023-03-26T13:56:47.987Z,1.00
2023-03-26T13:59:45.066Z,0.90
2023-03-26T14:02:30.833Z,1.20
2023-03-26T14:05:28.856Z,1.30
2023-03-26T14:08:17.921Z,2.00
2023-03-26T14:10:58.889Z,1.20
2023-03-26T14:13:54.812Z,1.00
2023-03-26T14:16:28.105Z,1.30
2023-03-26T14:19:33.772Z,0.90
2023-03-26T14:22:23.020Z,1.50
2023-03-26T14:24:58.820Z,1.50
2023-03-26T14:27:38.564Z,1.30
2023-03-26T14:30:12.419Z,1.00
2023-03-26T14:33:14.593Z,1.30
2023-03-26T14:36:44.990Z,0.90
2023-03-26T14:39:30.909Z,1.00
2023-03-26T14:42:02.279Z,1.70
2023-03-26T14:44:47.558Z,1.90
2023-03-26T14:47:20.583Z,1.90
2023-03-26T14:50:20.574Z,1.70
2023-03-26T14:52:52.975Z,1.70
2023-03-26T14:55:44.007Z,1.20
2023-03-26T14:58:28.243Z,1.60
2023-03-26T15:01:17.641Z,1.50
2023-03-26T15:04:22.832Z,1.40
2023-03-26T15:07:19.797Z,1.40
2023-03-26T15:09:53.573Z,2.10
2023-03-26T15:12:24.367Z,2.10
2023-03-26T15:15:14.145Z,2.20
2023-03-26T15:18:06.497Z,1.70
2023-03-26T15:21:13.059Z,1.60
2023-03-26T15:24:06.725Z,1.60
2023-03-26T15:26:56.965Z,1.60
2023-03-26T15:29:35.631Z,1.90
2023-03-26T15:32:17.428Z,1.40
2023-03-26T15:34:48.785Z,1.00
2023-03-26T15:37:54.444Z,1.30
2023-03-26T15:40:31.120Z,1.30
2023-03-26T15:43:11.168Z,1.50
2023-03-26T15:45:44.457Z,1.30
2023-03-26T15:48:32.600Z,1.20
2023-03-26T15:51:03.218Z,1.30
2023-03-26T15:53:43.887Z,1.40
2023-03-26T15:56:20.760Z,1.30
2023-03-26T15:59:06.026Z,1.30
2023-03-26T16:02:04.710Z,1.50
2023-03-26T16:05:05.234Z,1.30
2023-03-26T16:07:58.911Z,1.70
2023-03-26T16:10:59.075Z,1.90
2023-03-26T16:13:38.607Z,1.50
2023-03-26T16:16:15.560Z,1.30
2023-03-26T16:18:46.693Z,1.30
2023-03-26T16:21:30.646Z,1.60
2023-03-26T16:24:03.418Z,1.30
2023-03-26T16:26:43.263Z,1.40
2023-03-26T16:29:18.390Z,1.70
2023-03-26T16:32:37.826Z,1.50
2023-03-26T16:35:14.550Z,1.80
2023-03-26T16:37:50.199Z,1.50
2023-03-26T16:40:18.140Z,2.30
2023-03-26T16:43:10.710Z,2.00
2023-03-26T16:46:03.828Z,1.90
2023-03-26T16:48:50.777Z,1.80
2023-03-26T16:51:40.148Z,2.20
2023-03-26T16:54:43.611Z,2.00
2023-03-26T16:57:17.293Z,2.60
2023-03-26T17:00:13.859Z,2.50
2023-03-26T17:02:42.762Z,1.80
2023-03-26T17:05:26.023Z,2.20
2023-03-26T17:08:12.666Z,2.20
2023-03-26T17:10:47.024Z,2.30
2023-03-26T17:13:23.594Z,3.00
2023-03-26T17:16:26.919Z,3.20
2023-03-26T17:19:04.586Z,2.80
2023-03-26T17:21:55.592Z,2.60
2023-03-26T17:24:30.693Z,2.60
2023-03-26T17:27:24.509Z,2.60
2023-03-26T17:30:17.875Z,2.30
2023-03-26T17:33:21.739Z,2.90
2023-03-26T17:35:52.367Z,3.30
2023-03-26T17:38:26.841Z,3.60
2023-03-26T17:40:58.964Z,4.00
2023-03-26T17:43:35.910Z,3.80
2023-03-26T17:46:13.664Z,4.50
2023-03-26T17:48:47.169Z,4.40
2023-03-26T17:51:40.436Z,4.90
2023-03-26T17:54:17.769Z,4.70
2023-03-26T17:56:47.719Z,4.70
2023-03-26T17:59:23.628Z,5.70
2023-03-26T18:01:55.925Z,4.60
2023-03-26T18:04:30.807Z,4.80
2023-03-26T18:07:32.666Z,5.00
2023-03-26T18:10:03.228Z,5.50
2023-03-26T18:12:56.291Z,5.70
2023-03-26T18:15:46.085Z,6.00
2023-03-26T18:18:20.238Z,6.60
2023-03-26T18:20:50.821Z,7.50
2023-03-26T18:23:29.792Z,7.50
2023-03-26T18:26:09.222Z,7.80
2023-03-26T18:28:45.596Z,8.30
2023-03-26T18:31:24.061Z,8.40
2023-03-26T18:33:59.143Z,9.00
2023-03-26T18:36:28.159Z,8.10
2023-03-26T18:38:58.821Z,9.20
2023-03-26T18:41:31.541Z,8.00
2023-03-26T18:44:05.626Z,8.60
2023-03-26T18:46:34.237Z,7.70
2023-03-26T18:49:03.158Z,8.10
2023-03-26T18:51:32.401Z,8.20
2023-03-26T18:54:04.924Z,8.50
2023-03-26T18:56:35.501Z,8.00
2023-03-26T18:59:22.139Z,8.50
2023-03-26T19:01:50.971Z,8.20
2023-03-26T19:04:19.320Z,9.70
2023-03-26T19:06:47.417Z,9.20
2023-03-26T19:09:28.130Z,10.00
2023-03-26T19:12:16.474Z,10.20
2023-03-26T19:14:54.376Z,9.70
2023-03-26T19:17:24.638Z,10.20
2023-03-26T19:19:54.304Z,10.80
2023-03-26T19:22:26.168Z,12.80
2023-03-26T19:25:01.301Z,13.00
2023-03-26T19:27:29.853Z,12.40
2023-03-26T19:29:57.929Z,14.20
2023-03-26T19:32:34.945Z,14.60
2023-03-26T19:35:04.683Z,14.80
2023-03-26T19:37:33.346Z,15.60
2023-03-26T19:40:22.489Z,13.20
2023-03-26T19:42:50.857Z,12.70
2023-03-26T19:45:21.933Z,14.20
2023-03-26T19:48:03.642Z,12.70
2023-03-26T19:50:46.007Z,12.70
2023-03-26T19:53:25.695Z,12.90
2023-03-26T19:56:05.268Z,13.50
2023-03-26T19:58:35.818Z,14.00
2023-03-26T20:01:04.814Z,11.80
2023-03-26T20:03:44.526Z,12.20
2023-03-26T20:06:14.882Z,12.20
2023-03-26T20:08:43.792Z,12.20
2023-03-26T20:11:22.048Z,11.50
2023-03-26T20:13:50.738Z,11.30
2023-03-26T20:16:26.659Z,11.70
2023-03-26T20:18:58.461Z,13.50
2023-03-26T20:21:26.591Z,11.80
2023-03-26T20:23:55.304Z,11.30
2023-03-26T20:26:24.336Z,11.10
2023-03-26T20:28:53.852Z,11.90
2023-03-26T20:31:25.457Z,12.10
2023-03-26T20:33:54.339Z,12.10
2023-03-26T20:36:34.173Z,12.40
2023-03-26T20:39:07.910Z,10.80
2023-03-26T20:41:45.675Z,10.00
2023-03-26T20:44:16.773Z,10.40
2023-03-26T20:46:46.088Z,10.40
2023-03-26T20:49:18.207Z,11.90
2023-03-26T20:51:46.944Z,10.90
2023-03-26T20:54:20.231Z,11.30
2023-03-26T20:56:49.326Z,11.10
2023-03-26T20:59:21.810Z,12.50
2023-03-26T21:01:50.682Z,10.20
2023-03-26T21:04:19.780Z,10.10
2023-03-26T21:06:48.283Z,11.10
2023-03-26T21:09:19.223Z,16.20
2023-03-26T21:12:01.811Z,14.50
2023-03-26T21:14:44.249Z,10.70
2023-03-26T21:17:22.259Z,10.70
2023-03-26T21:19:50.499Z,10.50
2023-03-26T21:22:44.717Z,10.60
2023-03-26T21:25:45.392Z,9.30
2023-03-26T21:28:17.359Z,9.30
2023-03-26T21:30:47.253Z,9.20
2023-03-26T21:33:15.326Z,9.20
2023-03-26T21:35:44.895Z,9.10
2023-03-26T21:38:13.647Z,9.30
2023-03-26T21:40:46.969Z,8.50
2023-03-26T21:43:21.878Z,8.80
2023-03-26T21:45:50.287Z,8.50
2023-03-26T21:48:18.514Z,8.70
2023-03-26T21:50:46.871Z,8.20
2023-03-26T21:53:15.916Z,8.70
2023-03-26T21:56:12.527Z,10.10
2023-03-26T21:59:17.544Z,9.60
2023-03-26T22:02:12.853Z,10.20
2023-03-26T22:04:53.664Z,9.60
2023-03-26T22:07:49.405Z,9.00
2023-03-26T22:10:17.407Z,9.80
2023-03-26T22:12:45.476Z,8.80
2023-03-26T22:15:14.076Z,8.50
2023-03-26T22:17:42.268Z,9.30
2023-03-26T22:20:14.775Z,8.30
2023-03-26T22:22:49.047Z,9.10
2023-03-26T22:25:18.286Z,9.50
2023-03-26T22:27:47.197Z,10.40
2023-03-26T22:30:15.798Z,8.80
2023-03-26T22:32:44.845Z,8.80
2023-03-26T22:35:13.135Z,9.30
2023-03-26T22:37:41.851Z,9.20
2023-03-26T22:40:13.103Z,8.80
2023-03-26T22:42:41.881Z,9.40
2023-03-26T22:45:11.232Z,8.90
2023-03-26T22:47:39.392Z,7.90
2023-03-26T22:50:08.331Z,8.40
2023-03-26T22:52:37.258Z,8.60
2023-03-26T22:55:05.493Z,7.00
2023-03-26T22:57:33.564Z,8.40
2023-03-26T23:00:16.485Z,7.50
2023-03-26T23:02:45.286Z,7.10
2023-03-26T23:05:14.292Z,8.00
2023-03-26T23:07:42.644Z,8.00
2023-03-26T23:10:11.373Z,7.80
2023-03-26T23:12:40.425Z,6.60
2023-03-26T23:15:09.996Z,8.00
2023-03-26T23:17:38.347Z,7.80
2023-03-26T23:20:15.147Z,7.80
2023-03-26T23:22:43.472Z,7.40
2023-03-26T23:25:12.589Z,8.70
2023-03-26T23:27:41.634Z,7.30
2023-03-26T23:30:11.044Z,8.20
2023-03-26T23:32:39.087Z,7.70
2023-03-26T23:35:07.733Z,7.40
2023-03-26T23:37:35.679Z,8.00
2023-03-26T23:40:10.308Z,7.80
2023-03-26T23:42:38.269Z,7.80
2023-03-26T23:45:07.083Z,7.50
2023-03-26T23:47:35.047Z,6.80
2023-03-26T23:50:03.692Z,8.60
2023-03-26T23:52:31.799Z,7.00
2023-03-26T23:55:02.374Z,7.40
2023-03-26T23:57:30.664Z,8.40
2023-03-26T23:59:58.593Z,7.50
